createdAt,value
2022-08-25T00:01:58.370Z,22.60
2022-08-25T00:04:26.348Z,22.60
2022-08-25T00:06:59.434Z,22.50
2022-08-25T00:09:29.987Z,22.50
2022-08-25T00:11:57.029Z,22.40
2022-08-25T00:14:29.431Z,22.40
2022-08-25T00:16:56.386Z,22.30
2022-08-25T00:19:27.432Z,22.20
2022-08-25T00:21:55.779Z,22.30
2022-08-25T00:24:22.928Z,22.20
2022-08-25T00:26:52.272Z,22.20
2022-08-25T00:29:19.910Z,22.20
2022-08-25T00:31:47.702Z,22.30
2022-08-25T00:34:23.604Z,22.30
2022-08-25T00:36:53.274Z,22.20
2022-08-25T00:39:22.830Z,22.20
2022-08-25T00:41:51.444Z,22.20
2022-08-25T00:44:18.832Z,22.20
2022-08-25T00:46:53.530Z,22.20
2022-08-25T00:49:43.211Z,22.20
2022-08-25T00:52:17.944Z,22.20
2022-08-25T00:54:47.445Z,22.10
2022-08-25T00:57:16.719Z,22.10
2022-08-25T00:59:44.675Z,22.00
2022-08-25T01:02:14.526Z,22.00
2022-08-25T01:04:48.708Z,22.00
2022-08-25T01:07:19.528Z,22.00
2022-08-25T01:09:49.112Z,21.90
2022-08-25T01:12:16.117Z,21.90
2022-08-25T01:14:46.656Z,21.90
2022-08-25T01:17:14.416Z,21.80
2022-08-25T01:19:42.001Z,21.70
2022-08-25T01:22:12.064Z,21.80
2022-08-25T01:24:42.977Z,21.80
2022-08-25T01:27:11.069Z,21.80
2022-08-25T01:29:38.347Z,21.70
2022-08-25T01:32:08.953Z,21.70
2022-08-25T01:34:40.635Z,21.70
2022-08-25T01:37:08.519Z,21.60
2022-08-25T01:39:41.748Z,21.60
2022-08-25T01:42:27.249Z,21.60
2022-08-25T01:44:54.592Z,21.60
2022-08-25T01:47:21.475Z,21.60
2022-08-25T01:49:48.990Z,21.60
2022-08-25T01:52:44.752Z,21.60
2022-08-25T01:55:11.635Z,21.70
2022-08-25T01:57:38.741Z,21.70
2022-08-25T02:00:08.849Z,21.70
2022-08-25T02:02:35.779Z,21.70
2022-08-25T02:05:03.901Z,21.70
2022-08-25T02:07:32.103Z,21.60
2022-08-25T02:09:59.336Z,21.50
2022-08-25T02:12:32.150Z,21.50
2022-08-25T02:15:01.733Z,21.40
2022-08-25T02:17:29.889Z,21.30
2022-08-25T02:19:57.321Z,21.30
2022-08-25T02:22:24.441Z,21.30
2022-08-25T02:24:51.352Z,21.30
2022-08-25T02:27:18.532Z,21.40
2022-08-25T02:29:45.621Z,21.40
2022-08-25T02:32:12.483Z,21.40
2022-08-25T02:34:41.487Z,21.40
2022-08-25T02:37:08.715Z,21.50
2022-08-25T02:39:35.881Z,21.40
2022-08-25T02:42:03.430Z,21.30
2022-08-25T02:44:31.777Z,21.30
2022-08-25T02:46:58.864Z,21.30
2022-08-25T02:49:25.873Z,21.30
2022-08-25T02:51:54.037Z,21.20
2022-08-25T02:54:21.043Z,21.30
2022-08-25T02:56:48.537Z,21.20
2022-08-25T02:59:15.518Z,21.20
2022-08-25T03:01:42.421Z,21.20
2022-08-25T03:04:09.355Z,21.20
2022-08-25T03:06:36.196Z,21.10
2022-08-25T03:09:04.412Z,21.10
2022-08-25T03:11:31.401Z,21.20
2022-08-25T03:13:58.272Z,21.20
2022-08-25T03:16:27.756Z,21.20
2022-08-25T03:18:55.174Z,21.10
2022-08-25T03:21:22.996Z,21.10
2022-08-25T03:23:49.920Z,21.10
2022-08-25T03:26:35.281Z,21.10
2022-08-25T03:29:05.671Z,21.10
2022-08-25T03:31:34.494Z,21.00
2022-08-25T03:34:01.958Z,21.00
2022-08-25T03:36:29.074Z,21.10
2022-08-25T03:38:56.267Z,21.10
2022-08-25T03:41:29.876Z,21.00
2022-08-25T03:43:57.082Z,21.00
2022-08-25T03:46:44.203Z,21.00
2022-08-25T03:49:15.112Z,21.00
2022-08-25T03:51:45.509Z,20.90
2022-08-25T03:54:12.967Z,20.80
2022-08-25T03:56:40.402Z,20.70
2022-08-25T03:59:09.940Z,20.70
2022-08-25T04:01:37.909Z,20.70
2022-08-25T04:04:06.338Z,20.70
2022-08-25T04:06:33.726Z,20.70
2022-08-25T04:09:00.581Z,20.70
2022-08-25T04:11:28.255Z,20.70
2022-08-25T04:13:57.685Z,20.80
2022-08-25T04:16:28.552Z,20.80
2022-08-25T04:18:56.110Z,20.70
2022-08-25T04:21:24.245Z,20.70
2022-08-25T04:23:52.845Z,20.70
2022-08-25T04:26:27.231Z,20.80
2022-08-25T04:28:56.756Z,20.60
2022-08-25T04:31:24.074Z,20.70
2022-08-25T04:33:51.258Z,20.70
2022-08-25T04:36:19.872Z,20.70
2022-08-25T04:38:48.122Z,20.70
2022-08-25T04:41:16.903Z,20.60
2022-08-25T04:43:44.731Z,20.60
2022-08-25T04:46:20.535Z,20.60
2022-08-25T04:48:49.126Z,20.60
2022-08-25T04:51:19.419Z,20.60
2022-08-25T04:53:47.024Z,20.60
2022-08-25T04:56:16.789Z,20.60
2022-08-25T04:58:45.390Z,20.60
2022-08-25T05:01:15.832Z,20.50
2022-08-25T05:03:43.996Z,20.60
2022-08-25T05:06:15.745Z,20.60
2022-08-25T05:08:45.906Z,20.60
2022-08-25T05:11:14.838Z,20.60
2022-08-25T05:13:43.756Z,20.60
2022-08-25T05:16:19.164Z,20.60
2022-08-25T05:18:46.587Z,20.60
2022-08-25T05:21:17.693Z,20.70
2022-08-25T05:23:46.562Z,20.70
2022-08-25T05:26:20.271Z,20.70
2022-08-25T05:28:50.376Z,20.70
2022-08-25T05:31:17.903Z,20.70
2022-08-25T05:33:44.897Z,20.70
2022-08-25T05:36:13.580Z,20.60
2022-08-25T05:38:41.789Z,20.60
2022-08-25T05:41:11.239Z,20.50
2022-08-25T05:43:40.021Z,20.60
2022-08-25T05:46:08.312Z,20.60
2022-08-25T05:48:35.892Z,20.60
2022-08-25T05:51:05.118Z,20.70
2022-08-25T05:53:34.109Z,20.60
2022-08-25T05:56:01.073Z,20.60
2022-08-25T05:58:29.151Z,20.60
2022-08-25T06:00:57.933Z,20.50
2022-08-25T06:03:24.925Z,20.70
2022-08-25T06:05:51.844Z,20.80
2022-08-25T06:08:19.923Z,20.90
2022-08-25T06:10:52.452Z,21.00
2022-08-25T06:13:19.323Z,21.20
2022-08-25T06:16:00.080Z,21.30
2022-08-25T06:18:27.188Z,21.30
2022-08-25T06:20:54.126Z,21.40
2022-08-25T06:23:21.041Z,21.40
2022-08-25T06:25:54.380Z,21.40
2022-08-25T06:28:21.313Z,21.40
2022-08-25T06:30:48.211Z,21.50
2022-08-25T06:33:15.561Z,21.50
2022-08-25T06:35:44.029Z,21.70
2022-08-25T06:38:11.528Z,21.80
2022-08-25T06:40:38.827Z,21.70
2022-08-25T06:43:08.870Z,21.70
2022-08-25T06:45:36.007Z,21.70
2022-08-25T06:48:03.160Z,21.90
2022-08-25T06:50:30.167Z,21.90
2022-08-25T06:52:57.037Z,21.90
2022-08-25T06:55:24.240Z,22.00
2022-08-25T06:57:54.228Z,22.00
2022-08-25T07:00:22.880Z,22.10
2022-08-25T07:02:58.595Z,22.20
2022-08-25T07:05:33.426Z,22.30
2022-08-25T07:08:01.273Z,22.30
2022-08-25T07:10:28.230Z,22.30
2022-08-25T07:12:58.523Z,22.30
2022-08-25T07:15:25.375Z,22.40
2022-08-25T07:17:52.257Z,22.50
2022-08-25T07:20:19.620Z,22.60
2022-08-25T07:22:47.951Z,22.50
2022-08-25T07:25:14.824Z,22.60
2022-08-25T07:27:45.107Z,22.60
2022-08-25T07:30:12.005Z,22.80
2022-08-25T07:35:27.348Z,22.90
2022-08-25T07:38:07.077Z,22.90
2022-08-25T07:40:37.740Z,23.00
2022-08-25T07:43:10.040Z,23.10
2022-08-25T07:45:41.125Z,23.10
2022-08-25T07:48:18.360Z,23.20
2022-08-25T07:50:46.246Z,23.40
2022-08-25T07:53:14.891Z,23.50
2022-08-25T07:55:42.811Z,23.50
2022-08-25T07:58:12.374Z,23.50
2022-08-25T08:00:42.393Z,23.60
2022-08-25T08:03:12.963Z,23.70
2022-08-25T08:05:51.208Z,23.80
2022-08-25T08:08:18.947Z,23.90
2022-08-25T08:11:04.561Z,24.00
2022-08-25T08:13:36.675Z,24.10
2022-08-25T08:16:13.183Z,24.30
2022-08-25T08:18:42.585Z,24.30
2022-08-25T08:21:31.210Z,24.40
2022-08-25T08:23:59.291Z,24.50
2022-08-25T08:26:36.470Z,24.70
2022-08-25T08:29:14.703Z,24.70
2022-08-25T08:31:42.031Z,24.80
2022-08-25T08:34:16.066Z,24.90
2022-08-25T08:36:42.979Z,24.80
2022-08-25T08:39:12.586Z,25.00
2022-08-25T08:42:16.813Z,25.10
2022-08-25T08:44:50.459Z,25.30
2022-08-25T08:47:47.453Z,25.40
2022-08-25T08:51:10.085Z,25.60
2022-08-25T08:53:58.437Z,25.80
2022-08-25T08:56:34.594Z,25.80
2022-08-25T08:59:06.800Z,25.80
2022-08-25T09:01:35.512Z,25.80
2022-08-25T09:04:09.791Z,25.70
2022-08-25T09:06:43.828Z,25.70
2022-08-25T09:09:14.488Z,25.80
2022-08-25T09:11:58.624Z,25.90
2022-08-25T09:14:47.757Z,26.00
2022-08-25T09:17:39.707Z,26.20
2022-08-25T09:20:34.975Z,26.20
2022-08-25T09:23:20.241Z,26.20
2022-08-25T09:25:56.163Z,26.40
2022-08-25T09:28:29.120Z,26.50
2022-08-25T09:31:16.891Z,26.60
2022-08-25T09:33:44.287Z,26.70
2022-08-25T09:36:14.440Z,26.80
2022-08-25T09:38:41.620Z,27.10
2022-08-25T09:41:08.816Z,27.10
2022-08-25T09:43:41.249Z,27.10
2022-08-25T09:46:27.153Z,27.30
2022-08-25T09:49:11.049Z,27.40
2022-08-25T09:51:43.405Z,27.60
2022-08-25T09:54:13.520Z,27.70
2022-08-25T09:56:53.204Z,27.80
2022-08-25T09:59:30.792Z,27.70
2022-08-25T10:02:29.347Z,27.80
2022-08-25T10:04:57.093Z,28.10
2022-08-25T10:07:38.689Z,28.30
2022-08-25T10:10:21.003Z,28.60
2022-08-25T10:12:51.253Z,28.70
2022-08-25T10:15:37.059Z,28.70
2022-08-25T10:18:21.437Z,28.80
2022-08-25T10:21:20.811Z,28.70
2022-08-25T10:23:51.635Z,28.40
2022-08-25T10:26:44.105Z,28.40
2022-08-25T10:29:25.497Z,28.60
2022-08-25T10:32:40.247Z,28.70
2022-08-25T10:35:17.384Z,28.80
2022-08-25T10:38:11.034Z,28.80
2022-08-25T10:40:49.997Z,28.80
2022-08-25T10:43:39.348Z,28.90
2022-08-25T10:46:12.465Z,29.20
2022-08-25T10:48:52.658Z,29.70
2022-08-25T10:51:41.708Z,30.10
2022-08-25T10:54:20.235Z,30.70
2022-08-25T10:57:23.827Z,31.30
2022-08-25T11:00:17.452Z,31.90
2022-08-25T11:03:06.372Z,32.20
2022-08-25T11:05:43.195Z,32.40
2022-08-25T11:08:36.410Z,32.50
2022-08-25T11:11:21.585Z,32.70
2022-08-25T11:13:58.904Z,33.00
2022-08-25T11:16:34.118Z,33.20
2022-08-25T11:19:17.682Z,33.40
2022-08-25T11:22:06.852Z,33.60
2022-08-25T11:24:40.927Z,33.90
2022-08-25T11:27:17.476Z,34.00
2022-08-25T11:29:53.413Z,34.00
2022-08-25T11:32:23.743Z,33.70
2022-08-25T11:34:52.783Z,33.80
2022-08-25T11:37:28.139Z,34.30
2022-08-25T11:40:20.201Z,34.70
2022-08-25T11:42:59.656Z,35.30
2022-08-25T11:45:38.596Z,35.70
2022-08-25T11:48:54.840Z,35.90
2022-08-25T11:51:42.164Z,36.30
2022-08-25T11:54:18.761Z,36.20
2022-08-25T11:56:57.820Z,36.30
2022-08-25T11:59:51.498Z,35.90
2022-08-25T12:02:36.692Z,36.20
2022-08-25T12:05:12.789Z,36.70
2022-08-25T12:08:24.423Z,36.40
2022-08-25T12:11:20.179Z,36.80
2022-08-25T12:13:49.469Z,37.10
2022-08-25T12:16:35.900Z,36.70
2022-08-25T12:19:33.901Z,37.00
2022-08-25T12:22:04.140Z,37.60
2022-08-25T12:24:47.524Z,37.90
2022-08-25T12:27:46.185Z,38.10
2022-08-25T12:30:24.508Z,38.10
2022-08-25T12:33:24.273Z,37.90
2022-08-25T12:36:00.994Z,37.80
2022-08-25T12:38:51.911Z,37.70
2022-08-25T12:41:30.861Z,38.20
2022-08-25T12:44:16.905Z,38.50
2022-08-25T12:46:46.968Z,38.40
2022-08-25T12:49:15.462Z,38.30
2022-08-25T12:52:21.088Z,38.80
2022-08-25T12:55:05.394Z,39.00
2022-08-25T12:57:45.458Z,39.00
2022-08-25T13:00:18.261Z,39.20
2022-08-25T13:03:14.240Z,39.50
2022-08-25T13:06:05.830Z,39.40
2022-08-25T13:08:59.911Z,39.60
2022-08-25T13:11:35.246Z,39.70
2022-08-25T13:14:22.758Z,40.00
2022-08-25T13:16:57.993Z,40.30
2022-08-25T13:19:26.626Z,40.10
2022-08-25T13:21:55.908Z,40.20
2022-08-25T13:24:28.123Z,39.90
2022-08-25T13:26:59.454Z,39.70
2022-08-25T13:29:35.845Z,39.80
2022-08-25T13:32:14.470Z,39.90
2022-08-25T13:34:43.182Z,40.20
2022-08-25T13:37:29.679Z,40.10
2022-08-25T13:40:29.499Z,40.40
2022-08-25T13:43:01.032Z,40.90
2022-08-25T13:45:31.848Z,41.20
2022-08-25T13:47:59.430Z,41.50
2022-08-25T13:50:26.886Z,41.90
2022-08-25T13:53:13.947Z,41.80
2022-08-25T13:55:54.939Z,41.20
2022-08-25T13:58:44.962Z,40.90
2022-08-25T14:01:22.952Z,40.90
2022-08-25T14:04:54.162Z,41.30
2022-08-25T14:07:21.009Z,41.40
2022-08-25T14:09:50.233Z,41.40
2022-08-25T14:13:09.005Z,41.40
2022-08-25T14:15:38.387Z,41.90
2022-08-25T14:18:14.403Z,41.70
2022-08-25T14:20:50.384Z,41.80
2022-08-25T14:23:21.010Z,42.20
2022-08-25T14:25:52.542Z,42.00
2022-08-25T14:28:22.837Z,42.20
2022-08-25T14:31:01.039Z,42.40
2022-08-25T14:33:37.818Z,42.40
2022-08-25T14:36:06.817Z,41.70
2022-08-25T14:38:35.389Z,41.50
2022-08-25T14:41:02.347Z,41.80
2022-08-25T14:43:31.423Z,42.00
2022-08-25T14:46:02.610Z,41.60
2022-08-25T14:48:35.631Z,41.40
2022-08-25T14:51:05.790Z,41.40
2022-08-25T14:53:33.485Z,41.50
2022-08-25T14:56:01.379Z,41.80
2022-08-25T14:58:35.499Z,42.20
2022-08-25T15:01:17.799Z,42.20
2022-08-25T15:03:50.595Z,42.10
2022-08-25T15:06:26.589Z,42.20
2022-08-25T15:09:10.960Z,42.20
2022-08-25T15:11:44.080Z,42.00
2022-08-25T15:14:15.412Z,42.10
2022-08-25T15:16:50.323Z,42.10
2022-08-25T15:19:20.355Z,41.80
2022-08-25T15:21:48.484Z,41.40
2022-08-25T15:24:17.382Z,41.20
2022-08-25T15:26:57.656Z,41.10
2022-08-25T15:29:27.361Z,41.60
2022-08-25T15:31:54.548Z,41.70
2022-08-25T15:34:21.744Z,41.60
2022-08-25T15:36:49.177Z,42.00
2022-08-25T15:39:18.781Z,41.60
2022-08-25T15:41:49.603Z,42.00
2022-08-25T15:44:16.953Z,42.40
2022-08-25T15:46:46.894Z,42.50
2022-08-25T15:49:14.272Z,42.50
2022-08-25T15:51:47.889Z,42.30
2022-08-25T15:54:15.838Z,42.00
2022-08-25T15:56:44.296Z,42.00
2022-08-25T15:59:13.473Z,42.20
2022-08-25T16:01:41.407Z,42.00
2022-08-25T16:04:08.383Z,41.70
2022-08-25T16:06:35.449Z,41.70
2022-08-25T16:09:02.515Z,41.50
2022-08-25T16:11:33.669Z,41.50
2022-08-25T16:14:02.610Z,41.40
2022-08-25T16:16:31.648Z,41.20
2022-08-25T16:18:59.647Z,41.40
2022-08-25T16:21:30.565Z,41.70
2022-08-25T16:24:02.640Z,42.10
2022-08-25T16:26:33.253Z,41.90
2022-08-25T16:29:00.135Z,41.80
2022-08-25T16:31:27.518Z,41.60
2022-08-25T16:33:57.679Z,41.40
2022-08-25T16:36:27.182Z,41.50
2022-08-25T16:38:57.273Z,41.50
2022-08-25T16:41:27.165Z,41.60
2022-08-25T16:43:54.511Z,41.80
2022-08-25T16:46:23.793Z,41.20
2022-08-25T16:48:50.962Z,41.30
2022-08-25T16:51:22.775Z,40.90
2022-08-25T16:54:22.333Z,40.60
2022-08-25T16:56:53.669Z,40.30
2022-08-25T16:59:23.355Z,40.00
2022-08-25T17:01:52.313Z,39.70
2022-08-25T17:04:19.746Z,39.80
2022-08-25T17:06:51.778Z,39.80
2022-08-25T17:09:23.046Z,39.70
2022-08-25T17:11:54.514Z,39.60
2022-08-25T17:14:22.144Z,39.50
2022-08-25T17:16:51.234Z,39.10
2022-08-25T17:19:18.791Z,38.40
2022-08-25T17:21:46.378Z,37.70
2022-08-25T17:24:14.312Z,37.20
2022-08-25T17:26:42.544Z,36.80
2022-08-25T17:29:10.129Z,36.30
2022-08-25T17:31:40.195Z,35.60
2022-08-25T17:34:10.565Z,35.10
2022-08-25T17:36:39.798Z,34.50
2022-08-25T17:39:08.633Z,33.90
2022-08-25T17:41:37.853Z,33.50
2022-08-25T17:44:05.411Z,33.20
2022-08-25T17:46:32.897Z,32.80
2022-08-25T17:48:59.915Z,32.40
2022-08-25T17:51:26.931Z,32.20
2022-08-25T17:53:56.990Z,32.00
2022-08-25T17:56:25.578Z,31.80
2022-08-25T17:58:56.215Z,31.70
2022-08-25T18:01:25.609Z,31.40
2022-08-25T18:03:52.801Z,31.10
2022-08-25T18:06:21.212Z,31.00
2022-08-25T18:08:52.263Z,30.80
2022-08-25T18:11:23.609Z,30.60
2022-08-25T18:13:53.800Z,30.40
2022-08-25T18:16:21.587Z,30.30
2022-08-25T18:18:49.122Z,30.20
2022-08-25T18:21:17.978Z,30.10
2022-08-25T18:23:45.781Z,30.00
2022-08-25T18:26:14.660Z,29.80
2022-08-25T18:28:43.994Z,29.70
2022-08-25T18:31:13.260Z,29.60
2022-08-25T18:33:44.449Z,29.40
2022-08-25T18:36:12.357Z,29.30
2022-08-25T18:38:58.749Z,29.20
2022-08-25T18:41:26.988Z,29.10
2022-08-25T18:43:54.710Z,29.00
2022-08-25T18:46:22.610Z,29.00
2022-08-25T18:48:52.900Z,28.90
2022-08-25T18:51:23.188Z,28.80
2022-08-25T18:53:51.160Z,28.80
2022-08-25T18:56:19.711Z,28.70
2022-08-25T18:58:47.629Z,28.70
2022-08-25T19:01:16.375Z,28.60
2022-08-25T19:03:44.398Z,28.50
2022-08-25T19:06:11.781Z,28.40
2022-08-25T19:08:41.716Z,28.30
2022-08-25T19:11:10.004Z,28.20
2022-08-25T19:13:37.850Z,28.20
2022-08-25T19:16:17.548Z,28.10
2022-08-25T19:18:47.556Z,28.00
2022-08-25T19:21:14.811Z,27.90
2022-08-25T19:23:41.651Z,28.00
2022-08-25T19:26:13.983Z,27.80
2022-08-25T19:28:48.872Z,27.60
2022-08-25T19:31:18.084Z,27.50
2022-08-25T19:33:46.882Z,27.40
2022-08-25T19:36:14.856Z,27.30
2022-08-25T19:38:43.986Z,27.30
2022-08-25T19:41:14.638Z,27.30
2022-08-25T19:43:55.677Z,27.30
2022-08-25T19:46:33.093Z,27.20
2022-08-25T19:49:13.156Z,27.20
2022-08-25T19:51:44.150Z,27.20
2022-08-25T19:54:16.781Z,27.20
2022-08-25T19:56:54.480Z,27.10
2022-08-25T19:59:24.711Z,27.20
2022-08-25T20:01:51.620Z,27.10
2022-08-25T20:04:18.532Z,27.10
2022-08-25T20:06:48.366Z,27.00
2022-08-25T20:09:21.094Z,27.00
2022-08-25T20:12:03.547Z,26.90
2022-08-25T20:14:33.960Z,26.80
2022-08-25T20:17:02.205Z,26.80
2022-08-25T20:19:31.101Z,26.70
2022-08-25T20:21:58.928Z,26.60
2022-08-25T20:24:44.753Z,26.60
2022-08-25T20:27:12.200Z,26.50
2022-08-25T20:29:39.223Z,26.50
2022-08-25T20:32:11.589Z,26.40
2022-08-25T20:34:38.530Z,26.40
2022-08-25T20:37:06.137Z,26.40
2022-08-25T20:39:33.987Z,26.30
2022-08-25T20:42:01.278Z,26.30
2022-08-25T20:44:33.834Z,26.20
2022-08-25T20:47:02.647Z,26.10
2022-08-25T20:49:31.389Z,25.80
2022-08-25T20:52:05.101Z,25.60
2022-08-25T20:54:32.244Z,25.50
2022-08-25T20:56:59.603Z,25.40
2022-08-25T20:59:27.310Z,25.40
2022-08-25T21:01:55.087Z,25.40
2022-08-25T21:04:24.711Z,25.40
2022-08-25T21:06:51.904Z,25.30
2022-08-25T21:09:23.007Z,25.40
2022-08-25T21:11:53.285Z,25.40
2022-08-25T21:14:21.513Z,25.30
2022-08-25T21:16:49.753Z,25.20
2022-08-25T21:19:26.851Z,25.20
2022-08-25T21:21:57.351Z,25.20
2022-08-25T21:24:28.138Z,25.20
2022-08-25T21:26:57.025Z,25.10
2022-08-25T21:29:28.611Z,25.10
2022-08-25T21:31:56.908Z,25.00
2022-08-25T21:34:24.304Z,24.90
2022-08-25T21:36:51.545Z,24.80
2022-08-25T21:39:18.791Z,24.80
2022-08-25T21:41:45.701Z,24.80
2022-08-25T21:44:13.816Z,24.80
2022-08-25T21:46:41.206Z,24.80
2022-08-25T21:49:08.813Z,24.80
2022-08-25T21:51:41.556Z,24.80
2022-08-25T21:54:11.527Z,24.70
2022-08-25T21:56:42.825Z,24.70
2022-08-25T21:59:14.272Z,24.70
2022-08-25T22:01:41.626Z,24.70
2022-08-25T22:04:10.706Z,24.70
2022-08-25T22:06:38.646Z,24.80
2022-08-25T22:09:08.328Z,24.90
2022-08-25T22:11:36.246Z,24.80
2022-08-25T22:14:03.651Z,24.70
2022-08-25T22:16:34.870Z,24.50
2022-08-25T22:19:02.800Z,24.30
2022-08-25T22:21:29.795Z,24.20
2022-08-25T22:23:58.592Z,24.10
2022-08-25T22:26:29.120Z,24.00
2022-08-25T22:28:57.297Z,24.00
2022-08-25T22:31:24.676Z,23.90
2022-08-25T22:33:52.250Z,23.80
2022-08-25T22:36:28.912Z,23.70
2022-08-25T22:38:56.795Z,23.70
2022-08-25T22:41:26.283Z,23.70
2022-08-25T22:43:55.584Z,23.60
2022-08-25T22:46:24.584Z,23.50
2022-08-25T22:48:51.938Z,23.60
2022-08-25T22:51:23.378Z,23.60
2022-08-25T22:53:50.618Z,23.60
2022-08-25T22:56:29.842Z,23.60
2022-08-25T22:58:59.162Z,23.50
2022-08-25T23:01:26.447Z,23.50
2022-08-25T23:03:53.407Z,23.40
2022-08-25T23:06:25.004Z,23.40
2022-08-25T23:08:53.913Z,23.40
2022-08-25T23:11:22.437Z,23.40
2022-08-25T23:13:50.720Z,23.30
2022-08-25T23:16:18.330Z,23.10
2022-08-25T23:18:46.846Z,22.90
2022-08-25T23:21:35.298Z,22.50
2022-08-25T23:24:08.859Z,21.90
2022-08-25T23:26:42.558Z,21.60
2022-08-25T23:29:18.408Z,21.50
2022-08-25T23:31:47.717Z,21.40
2022-08-25T23:34:16.678Z,21.40
2022-08-25T23:36:44.537Z,21.50
2022-08-25T23:39:11.771Z,21.60
2022-08-25T23:41:39.117Z,21.50
2022-08-25T23:44:11.684Z,21.40
2022-08-25T23:46:44.552Z,21.40
2022-08-25T23:49:11.569Z,21.70
2022-08-25T23:51:38.749Z,21.70
2022-08-25T23:54:09.289Z,21.70
2022-08-25T23:56:44.663Z,21.70
2022-08-25T23:59:18.542Z,21.90
